Terminal Aerodrome Forecast
Issued by NWS Indianapolis, IN

Home | Current Version | Previous Version | Text Only | Print | Product List | Glossary On
Versions: 1 2 3 4 5 6 7 8 9 10 11 12 13 14 15 16 17 18 19 20 21 22 23 24 25 26 27 28 29 30 31 32 33 34
954
FTUS43 KIND 190818 AAB
TAFIND
TAF AMD
KIND 190818Z 1908/2012 VRB03KT 6SM BR BKN008
     FM191100 VRB03KT 4SM BR BKN250
     FM191400 12004KT P6SM BKN080
     FM191900 12005KT P6SM VCSH OVC050
     FM192100 11006KT 4SM -RA OVC035
     FM200000 11007KT 1SM RA OVC008
     FM200700 14006KT 1SM RA OVC003
     FM201100 20006KT 3SM RA BR OVC008=

USA.gov is the U.S. government's official web portal to all federal, state and local government web resources and services.